createdAt,value
2023-01-03T00:02:04.343Z,97603.88
2023-01-03T00:07:34.307Z,97618.94
2023-01-03T00:12:56.932Z,97606.75
2023-01-03T00:18:17.804Z,97603.97
2023-01-03T00:23:38.885Z,97630.50
2023-01-03T00:29:00.256Z,97623.22
2023-01-03T00:34:21.412Z,97639.22
2023-01-03T00:39:42.150Z,97653.66
2023-01-03T00:45:03.093Z,97650.63
2023-01-03T00:50:23.756Z,97669.78
2023-01-03T00:55:44.493Z,97684.25
2023-01-03T01:01:14.441Z,97694.28
2023-01-03T01:06:40.273Z,97702.00
2023-01-03T01:12:01.458Z,97701.50
2023-01-03T01:17:23.093Z,97692.56
2023-01-03T01:22:44.031Z,97707.03
2023-01-03T01:28:04.871Z,97709.63
2023-01-03T01:33:25.708Z,97695.91
2023-01-03T01:38:48.163Z,97722.72
2023-01-03T01:44:46.934Z,97723.47
2023-01-03T01:50:17.875Z,97735.66
2023-01-03T01:55:52.977Z,97734.84
2023-01-03T02:01:16.289Z,97738.91
2023-01-03T02:06:39.231Z,97713.91
2023-01-03T02:12:45.920Z,97732.66
2023-01-03T02:18:48.221Z,97735.97
2023-01-03T02:24:42.131Z,97736.06
2023-01-03T02:30:18.192Z,97740.44
2023-01-03T02:35:53.904Z,97745.66
2023-01-03T02:41:32.417Z,97733.06
2023-01-03T02:47:05.221Z,97741.38
2023-01-03T02:52:29.279Z,97742.53
2023-01-03T02:58:00.972Z,97734.59
2023-01-03T03:03:31.596Z,97728.25
2023-01-03T03:08:52.463Z,97737.44
2023-01-03T03:14:29.004Z,97764.91
2023-01-03T03:20:13.789Z,97774.38
2023-01-03T03:25:49.522Z,97779.06
2023-01-03T03:31:19.551Z,97783.09
2023-01-03T03:37:28.631Z,97783.63
2023-01-03T03:43:27.318Z,97798.94
2023-01-03T03:49:21.171Z,97804.94
2023-01-03T03:54:47.161Z,97803.72
2023-01-03T04:00:15.579Z,97802.03
2023-01-03T04:05:46.189Z,97810.78
2023-01-03T04:11:07.265Z,97817.44
2023-01-03T04:16:27.964Z,97825.47
2023-01-03T04:21:48.704Z,97823.59
2023-01-03T04:27:09.336Z,97834.88
2023-01-03T04:32:29.967Z,97838.53
2023-01-03T04:37:50.759Z,97839.19
2023-01-03T04:43:30.025Z,97853.16
2023-01-03T04:48:50.768Z,97841.16
2023-01-03T04:54:11.456Z,97853.97
2023-01-03T04:59:32.213Z,97855.84
2023-01-03T05:04:52.942Z,97852.31
2023-01-03T05:10:13.598Z,97862.41
2023-01-03T05:15:39.371Z,97872.72
2023-01-03T05:21:34.137Z,97868.34
2023-01-03T05:26:55.430Z,97862.31
2023-01-03T05:32:16.165Z,97871.44
2023-01-03T05:37:36.781Z,97871.75
2023-01-03T05:42:57.652Z,97884.34
2023-01-03T05:48:19.227Z,97896.50
2023-01-03T05:53:39.817Z,97891.41
2023-01-03T05:59:01.067Z,97894.31
2023-01-03T06:04:21.977Z,97897.09
2023-01-03T06:09:42.698Z,97916.56
2023-01-03T06:15:04.059Z,97910.97
2023-01-03T06:20:28.650Z,97910.34
2023-01-03T06:25:49.570Z,97905.88
2023-01-03T06:31:10.998Z,97920.19
2023-01-03T06:36:34.645Z,97923.41
2023-01-03T06:41:55.779Z,97929.44
2023-01-03T06:47:35.061Z,97937.72
2023-01-03T06:53:13.859Z,97948.31
2023-01-03T06:58:35.411Z,97953.50
2023-01-03T07:03:56.037Z,97947.38
2023-01-03T07:09:18.124Z,97957.28
2023-01-03T07:14:38.814Z,97968.13
2023-01-03T07:19:59.633Z,97969.13
2023-01-03T07:25:21.380Z,97969.47
2023-01-03T07:30:44.995Z,97983.72
2023-01-03T07:36:12.048Z,97987.19
2023-01-03T07:41:53.158Z,97997.09
2023-01-03T07:47:14.393Z,98005.91
2023-01-03T07:52:35.507Z,98009.94
2023-01-03T07:57:56.444Z,98014.94
2023-01-03T08:03:17.602Z,98013.69
2023-01-03T08:08:38.867Z,98024.28
2023-01-03T08:14:00.155Z,98031.91
2023-01-03T08:19:21.225Z,98035.31
2023-01-03T08:24:42.024Z,98044.69
2023-01-03T08:30:02.875Z,98052.13
2023-01-03T08:35:26.453Z,98050.75
2023-01-03T08:40:48.117Z,98057.81
2023-01-03T08:46:11.502Z,98068.03
2023-01-03T08:51:32.431Z,98071.06
2023-01-03T08:56:53.497Z,98069.00
2023-01-03T09:02:14.170Z,98073.19
2023-01-03T09:07:35.466Z,98077.00
2023-01-03T09:12:56.156Z,98077.91
2023-01-03T09:18:16.833Z,98077.00
2023-01-03T09:23:38.080Z,98079.31
2023-01-03T09:28:58.827Z,98085.56
2023-01-03T09:34:19.687Z,98091.97
2023-01-03T09:39:40.711Z,98086.75
2023-01-03T09:45:02.957Z,98084.63
2023-01-03T09:50:39.459Z,98080.13
2023-01-03T09:56:31.648Z,98084.00
2023-01-03T10:02:14.256Z,98074.34
2023-01-03T10:08:08.955Z,98069.72
2023-01-03T10:13:41.909Z,98069.63
2023-01-03T10:19:11.957Z,98067.03
2023-01-03T10:24:41.622Z,98066.22
2023-01-03T10:30:06.533Z,98063.84
2023-01-03T10:35:36.160Z,98047.84
2023-01-03T10:40:59.937Z,98041.84
2023-01-03T10:46:22.798Z,98040.91
2023-01-03T10:51:54.600Z,98041.47
2023-01-03T10:57:53.349Z,98033.16
2023-01-03T11:03:17.320Z,98034.28
2023-01-03T11:08:42.888Z,98032.41
2023-01-03T11:14:19.732Z,98033.28
2023-01-03T11:19:40.723Z,98030.44
2023-01-03T11:25:11.591Z,98039.53
2023-01-03T11:30:37.971Z,98027.38
2023-01-03T11:36:18.213Z,98013.66
2023-01-03T11:42:06.774Z,98011.88
2023-01-03T11:47:41.126Z,98006.13
2023-01-03T11:53:43.498Z,98007.41
2023-01-03T11:59:23.306Z,98007.78
2023-01-03T12:05:15.380Z,98006.13
2023-01-03T12:10:42.752Z,98011.56
2023-01-03T12:16:39.475Z,98006.53
2023-01-03T12:22:17.877Z,97993.09
2023-01-03T12:27:44.715Z,97991.31
2023-01-03T12:33:32.029Z,97982.38
2023-01-03T12:39:20.596Z,97989.03
2023-01-03T12:44:45.229Z,97987.16
2023-01-03T12:50:31.207Z,97990.22
2023-01-03T12:56:26.938Z,97988.09
2023-01-03T13:01:58.745Z,97992.59
2023-01-03T13:07:31.509Z,97990.19
2023-01-03T13:12:53.228Z,97987.91
2023-01-03T13:18:22.982Z,97994.44
2023-01-03T13:23:59.801Z,97991.97
2023-01-03T13:29:33.000Z,98001.34
2023-01-03T13:34:56.758Z,98006.59
2023-01-03T13:40:59.800Z,98004.41
2023-01-03T13:46:32.959Z,98004.34
2023-01-03T13:51:54.781Z,98005.19
2023-01-03T13:57:37.430Z,97998.09
2023-01-03T14:03:21.552Z,98012.56
2023-01-03T14:09:06.145Z,98010.69
2023-01-03T14:14:30.789Z,98011.47
2023-01-03T14:19:55.847Z,98012.34
2023-01-03T14:25:49.097Z,98014.66
2023-01-03T14:31:18.794Z,98022.16
2023-01-03T14:36:47.614Z,98025.91
2023-01-03T14:42:16.430Z,98017.94
2023-01-03T14:47:42.904Z,98020.53
2023-01-03T14:53:03.734Z,98024.75
2023-01-03T14:58:39.510Z,98035.13
2023-01-03T15:04:00.758Z,98024.19
2023-01-03T15:09:23.152Z,98029.13
2023-01-03T15:14:43.893Z,98032.66
2023-01-03T15:20:08.764Z,98037.53
2023-01-03T15:25:37.679Z,98043.56
2023-01-03T15:31:15.246Z,98033.94
2023-01-03T15:36:37.369Z,98041.06
2023-01-03T15:42:43.453Z,98039.88
2023-01-03T15:48:04.166Z,98049.34
2023-01-03T15:53:43.769Z,98053.69
2023-01-03T15:59:09.434Z,98059.06
2023-01-03T16:04:30.495Z,98075.53
2023-01-03T16:09:51.255Z,98078.50
2023-01-03T16:15:19.950Z,98087.31
2023-01-03T16:20:41.444Z,98090.66
2023-01-03T16:26:05.132Z,98100.19
2023-01-03T16:31:32.003Z,98104.13
2023-01-03T16:36:53.499Z,98107.28
2023-01-03T16:42:15.220Z,98102.94
2023-01-03T16:47:36.091Z,98101.53
2023-01-03T16:52:57.302Z,98100.78
2023-01-03T16:58:20.541Z,98105.53
2023-01-03T17:03:42.582Z,98119.03
2023-01-03T17:09:05.871Z,98104.97
2023-01-03T17:14:26.722Z,98108.06
2023-01-03T17:20:05.640Z,98117.69
2023-01-03T17:25:27.468Z,98108.91
2023-01-03T17:30:51.141Z,98126.53
2023-01-03T17:36:15.176Z,98125.78
2023-01-03T17:41:56.223Z,98136.03
2023-01-03T17:47:35.770Z,98130.72
2023-01-03T17:52:58.757Z,98139.84
2023-01-03T17:58:31.897Z,98147.22
2023-01-03T18:03:52.868Z,98155.16
2023-01-03T18:09:16.015Z,98141.78
2023-01-03T18:14:36.618Z,98148.03
2023-01-03T18:19:59.119Z,98133.66
2023-01-03T18:25:25.513Z,98138.44
2023-01-03T18:30:47.612Z,98145.09
2023-01-03T18:36:22.287Z,98153.44
2023-01-03T18:41:46.273Z,98166.00
2023-01-03T18:47:12.367Z,98180.53
2023-01-03T18:52:39.284Z,98186.06
2023-01-03T18:58:29.998Z,98178.16
2023-01-03T19:03:51.095Z,98174.44
2023-01-03T19:09:24.409Z,98165.44
2023-01-03T19:14:47.038Z,98164.38
2023-01-03T19:20:08.332Z,98163.03
2023-01-03T19:25:30.391Z,98163.81
2023-01-03T19:30:52.151Z,98168.75
2023-01-03T19:36:20.503Z,98170.94
2023-01-03T19:42:05.922Z,98171.84
2023-01-03T19:47:26.976Z,98176.00
2023-01-03T19:52:48.532Z,98177.81
2023-01-03T19:58:24.249Z,98183.97
2023-01-03T20:03:45.661Z,98178.09
2023-01-03T20:09:06.615Z,98175.25
2023-01-03T20:14:30.973Z,98178.66
2023-01-03T20:19:52.654Z,98164.47
2023-01-03T20:25:31.609Z,98174.38
2023-01-03T20:30:52.425Z,98174.31
2023-01-03T20:36:23.027Z,98169.88
2023-01-03T20:41:44.539Z,98178.22
2023-01-03T20:47:05.467Z,98181.22
2023-01-03T20:52:25.975Z,98174.09
2023-01-03T20:57:47.713Z,98172.81
2023-01-03T21:03:08.967Z,98179.13
2023-01-03T21:08:50.891Z,98178.16
2023-01-03T21:14:11.938Z,98184.50
2023-01-03T21:19:32.760Z,98168.50
2023-01-03T21:24:57.541Z,98172.22
2023-01-03T21:30:21.014Z,98180.16
2023-01-03T21:35:42.195Z,98187.25
2023-01-03T21:41:02.851Z,98183.75
2023-01-03T21:46:25.239Z,98192.47
2023-01-03T21:51:46.269Z,98190.69
2023-01-03T21:57:07.203Z,98184.03
2023-01-03T22:02:46.655Z,98170.56
2023-01-03T22:08:07.634Z,98179.78
2023-01-03T22:13:28.722Z,98186.00
2023-01-03T22:18:49.696Z,98182.97
2023-01-03T22:24:10.659Z,98169.84
2023-01-03T22:29:31.377Z,98182.31
2023-01-03T22:34:52.464Z,98178.19
2023-01-03T22:40:16.470Z,98184.50
2023-01-03T22:45:38.812Z,98190.31
2023-01-03T22:51:08.128Z,98178.53
2023-01-03T22:56:28.857Z,98170.88
2023-01-03T23:01:50.434Z,98166.75
2023-01-03T23:07:11.772Z,98169.91
2023-01-03T23:12:51.111Z,98164.94
2023-01-03T23:18:11.794Z,98154.41
2023-01-03T23:23:32.661Z,98147.44
2023-01-03T23:28:57.518Z,98142.19
2023-01-03T23:34:18.599Z,98136.78
2023-01-03T23:39:40.064Z,98144.25
2023-01-03T23:45:00.828Z,98145.25
2023-01-03T23:50:21.677Z,98138.22
2023-01-03T23:55:43.072Z,98127.50
